createdAt,value
2022-12-15T00:02:57.585Z,33.40
2022-12-15T00:06:20.058Z,32.00
2022-12-15T00:09:41.649Z,33.60
2022-12-15T00:13:03.356Z,30.50
2022-12-15T00:16:26.521Z,31.48
2022-12-15T00:19:48.555Z,33.45
2022-12-15T00:23:10.133Z,32.95
2022-12-15T00:26:32.413Z,31.62
2022-12-15T00:29:54.367Z,32.47
2022-12-15T00:33:16.216Z,30.50
2022-12-15T00:36:37.710Z,32.08
2022-12-15T00:39:40.881Z,32.28
2022-12-15T00:42:43.796Z,34.53
2022-12-15T00:46:05.637Z,31.02
2022-12-15T00:49:28.880Z,31.65
2022-12-15T00:52:50.671Z,32.90
2022-12-15T00:56:12.105Z,37.60
2022-12-15T00:59:35.130Z,34.85
2022-12-15T01:02:56.864Z,40.55
2022-12-15T01:06:18.615Z,35.00
2022-12-15T01:09:39.826Z,29.92
2022-12-15T01:13:02.218Z,34.35
2022-12-15T01:16:30.285Z,34.88
2022-12-15T01:19:52.120Z,31.10
2022-12-15T01:22:56.239Z,35.58
2022-12-15T01:25:59.484Z,34.33
2022-12-15T01:29:02.414Z,35.85
2022-12-15T01:32:06.018Z,38.15
2022-12-15T01:35:09.260Z,37.25
2022-12-15T01:38:12.567Z,37.17
2022-12-15T01:41:15.618Z,40.22
2022-12-15T01:44:22.004Z,34.05
2022-12-15T01:47:25.792Z,29.27
2022-12-15T01:50:32.159Z,30.33
2022-12-15T01:53:40.173Z,32.28
2022-12-15T01:56:46.964Z,35.47
2022-12-15T01:59:53.115Z,39.50
2022-12-15T02:02:57.162Z,37.28
2022-12-15T02:06:01.358Z,48.97
2022-12-15T02:09:04.765Z,43.05
2022-12-15T02:12:29.509Z,42.90
2022-12-15T02:15:42.017Z,42.22
2022-12-15T02:19:03.794Z,36.90
2022-12-15T02:22:38.734Z,42.80
2022-12-15T02:25:45.113Z,31.70
2022-12-15T02:29:05.769Z,60.03
2022-12-15T02:32:15.332Z,45.33
2022-12-15T02:35:44.531Z,42.40
2022-12-15T02:38:47.904Z,50.53
2022-12-15T02:41:53.029Z,40.63
2022-12-15T02:45:09.680Z,46.10
2022-12-15T02:48:23.898Z,40.17
2022-12-15T02:51:48.144Z,48.30
2022-12-15T02:55:14.176Z,39.73
2022-12-15T02:58:20.245Z,41.42
2022-12-15T03:01:37.132Z,40.08
2022-12-15T03:04:44.261Z,35.63
2022-12-15T03:07:50.280Z,33.38
2022-12-15T03:10:55.906Z,42.70
2022-12-15T03:13:59.032Z,36.58
2022-12-15T03:17:04.300Z,43.90
2022-12-15T03:23:13.692Z,34.92
2022-12-15T03:26:16.598Z,41.65
2022-12-15T03:29:20.054Z,47.22
2022-12-15T03:32:22.976Z,35.25
2022-12-15T03:35:26.198Z,38.30
2022-12-15T03:38:29.146Z,34.83
2022-12-15T03:41:32.364Z,35.95
2022-12-15T03:44:35.430Z,40.85
2022-12-15T03:47:42.024Z,40.70
2022-12-15T03:50:44.935Z,35.17
2022-12-15T03:53:49.427Z,35.70
2022-12-15T03:56:52.347Z,37.00
2022-12-15T03:59:55.654Z,38.30
2022-12-15T04:02:58.643Z,35.97
2022-12-15T04:06:02.302Z,35.58
2022-12-15T04:09:05.417Z,34.35
2022-12-15T04:12:11.239Z,40.28
2022-12-15T04:15:14.355Z,37.63
2022-12-15T04:18:17.630Z,36.65
2022-12-15T04:21:20.495Z,33.28
2022-12-15T04:24:42.538Z,34.95
2022-12-15T04:28:04.605Z,37.72
2022-12-15T04:31:32.251Z,32.65
2022-12-15T04:34:54.253Z,32.90
2022-12-15T04:38:16.018Z,35.17
2022-12-15T04:41:38.468Z,37.25
2022-12-15T04:45:01.074Z,33.42
2022-12-15T04:48:23.335Z,31.87
2022-12-15T04:51:45.144Z,30.37
2022-12-15T04:55:06.725Z,33.42
2022-12-15T04:58:30.066Z,31.27
2022-12-15T05:01:52.633Z,37.40
2022-12-15T05:05:14.445Z,37.88
2022-12-15T05:08:36.459Z,35.58
2022-12-15T05:12:08.067Z,35.22
2022-12-15T05:15:29.438Z,37.28
2022-12-15T05:18:51.431Z,33.63
2022-12-15T05:22:13.090Z,42.55
2022-12-15T05:25:35.645Z,35.72
2022-12-15T05:28:58.022Z,32.53
2022-12-15T05:32:01.244Z,37.58
2022-12-15T05:35:05.686Z,36.75
2022-12-15T05:38:08.972Z,36.15
2022-12-15T05:41:11.835Z,39.38
2022-12-15T05:44:15.304Z,39.42
2022-12-15T05:47:18.196Z,36.15
2022-12-15T05:50:22.185Z,37.80
2022-12-15T05:53:25.352Z,36.80
2022-12-15T05:56:29.376Z,44.17
2022-12-15T05:59:32.254Z,38.05
2022-12-15T06:02:35.526Z,44.55
2022-12-15T06:05:39.799Z,42.85
2022-12-15T06:08:43.530Z,41.42
2022-12-15T06:11:46.841Z,44.30
2022-12-15T06:14:49.801Z,42.67
2022-12-15T06:17:57.198Z,41.78
2022-12-15T06:21:02.956Z,37.28
2022-12-15T06:24:07.024Z,43.50
2022-12-15T06:27:10.136Z,42.42
2022-12-15T06:30:14.081Z,43.97
2022-12-15T06:33:17.561Z,47.88
2022-12-15T06:36:21.002Z,42.75
2022-12-15T06:39:23.952Z,42.33
2022-12-15T06:42:27.177Z,32.08
2022-12-15T06:45:30.087Z,46.47
2022-12-15T06:48:33.427Z,43.90
2022-12-15T06:51:37.305Z,42.70
2022-12-15T06:54:40.418Z,36.78
2022-12-15T06:57:43.278Z,43.15
2022-12-15T07:00:46.733Z,49.03
2022-12-15T07:03:51.075Z,46.63
2022-12-15T07:06:54.532Z,42.55
2022-12-15T07:09:57.941Z,42.13
2022-12-15T07:13:01.124Z,48.30
2022-12-15T07:16:06.437Z,56.53
2022-12-15T07:19:13.302Z,49.55
2022-12-15T07:22:16.199Z,55.15
2022-12-15T07:25:19.971Z,58.63
2022-12-15T07:28:25.892Z,52.67
2022-12-15T07:31:48.153Z,68.93
2022-12-15T07:34:52.098Z,52.65
2022-12-15T07:37:55.407Z,61.10
2022-12-15T07:41:04.083Z,66.82
2022-12-15T07:44:07.990Z,64.57
2022-12-15T07:47:12.046Z,58.00
2022-12-15T07:50:16.167Z,56.85
2022-12-15T07:53:22.108Z,56.70
2022-12-15T07:56:26.592Z,65.32
2022-12-15T07:59:29.521Z,58.87
2022-12-15T08:02:34.325Z,63.80
2022-12-15T08:05:38.939Z,71.95
2022-12-15T08:08:42.089Z,63.45
2022-12-15T08:11:45.444Z,62.55
2022-12-15T08:14:50.283Z,57.92
2022-12-15T08:17:53.481Z,49.22
2022-12-15T08:20:56.723Z,50.35
2022-12-15T08:24:01.086Z,52.03
2022-12-15T08:27:04.358Z,53.60
2022-12-15T08:30:08.105Z,42.53
2022-12-15T08:33:11.455Z,43.30
2022-12-15T08:36:16.271Z,40.60
2022-12-15T08:39:19.161Z,43.97
2022-12-15T08:42:22.305Z,42.10
2022-12-15T08:45:26.213Z,46.80
2022-12-15T08:48:31.161Z,45.05
2022-12-15T08:51:34.140Z,39.73
2022-12-15T08:54:38.639Z,44.33
2022-12-15T08:57:41.660Z,44.40
2022-12-15T09:00:44.884Z,43.87
2022-12-15T09:03:47.887Z,45.72
2022-12-15T09:06:51.300Z,45.55
2022-12-15T09:09:54.462Z,44.83
2022-12-15T09:12:57.818Z,43.92
2022-12-15T09:16:10.298Z,47.62
2022-12-15T09:19:14.302Z,52.97
2022-12-15T09:22:17.701Z,49.58
2022-12-15T09:25:21.048Z,47.22
2022-12-15T09:28:23.988Z,45.85
2022-12-15T09:31:33.394Z,45.08
2022-12-15T09:34:36.793Z,46.75
2022-12-15T09:37:40.086Z,45.05
2022-12-15T09:40:43.018Z,50.25
2022-12-15T09:44:00.595Z,45.83
2022-12-15T09:47:18.609Z,49.42
2022-12-15T09:50:26.779Z,49.35
2022-12-15T09:53:54.153Z,50.70
2022-12-15T09:56:57.305Z,56.95
2022-12-15T10:00:00.127Z,40.53
2022-12-15T10:03:22.691Z,44.42
2022-12-15T10:06:33.505Z,46.95
2022-12-15T10:09:38.533Z,45.12
2022-12-15T10:12:53.144Z,49.17
2022-12-15T10:16:04.735Z,42.22
2022-12-15T10:19:13.556Z,51.08
2022-12-15T10:22:24.786Z,44.85
2022-12-15T10:25:31.039Z,44.40
2022-12-15T10:28:51.336Z,51.70
2022-12-15T10:31:58.292Z,45.83
2022-12-15T10:35:01.476Z,41.37
2022-12-15T10:38:09.498Z,43.47
2022-12-15T10:41:19.808Z,45.97
2022-12-15T10:44:32.108Z,40.85
2022-12-15T10:47:35.266Z,42.62
2022-12-15T10:50:39.365Z,45.67
2022-12-15T10:53:50.444Z,38.78
2022-12-15T10:56:59.181Z,46.65
2022-12-15T11:00:15.622Z,42.50
2022-12-15T11:03:26.435Z,40.65
2022-12-15T11:06:32.610Z,48.22
2022-12-15T11:09:38.440Z,49.45
2022-12-15T11:12:58.315Z,48.15
2022-12-15T11:16:14.597Z,47.38
2022-12-15T11:19:30.871Z,43.42
2022-12-15T11:22:44.699Z,47.22
2022-12-15T11:26:11.856Z,49.28
2022-12-15T11:29:42.110Z,57.72
2022-12-15T11:32:48.906Z,59.83
2022-12-15T11:36:10.073Z,53.85
2022-12-15T11:39:34.626Z,64.10
2022-12-15T11:42:53.003Z,59.47
2022-12-15T11:46:15.021Z,63.47
2022-12-15T11:49:26.997Z,64.45
2022-12-15T11:53:24.535Z,55.95
2022-12-15T11:56:41.530Z,67.00
2022-12-15T11:59:52.028Z,59.40
2022-12-15T12:03:09.349Z,60.70
2022-12-15T12:06:17.413Z,70.30
2022-12-15T12:09:33.336Z,64.53
2022-12-15T12:12:36.432Z,67.45
2022-12-15T12:15:46.050Z,74.32
2022-12-15T12:19:04.701Z,64.00
2022-12-15T12:22:27.887Z,64.37
2022-12-15T12:25:37.933Z,61.67
2022-12-15T12:28:48.663Z,67.00
2022-12-15T12:32:18.619Z,63.30
2022-12-15T12:35:47.568Z,63.28
2022-12-15T12:38:56.263Z,63.58
2022-12-15T12:42:37.243Z,68.25
2022-12-15T12:45:47.539Z,64.57
2022-12-15T12:49:03.830Z,75.32
2022-12-15T12:52:25.711Z,68.70
2022-12-15T12:55:44.195Z,66.72
2022-12-15T12:58:48.681Z,60.33
2022-12-15T13:01:51.807Z,61.00
2022-12-15T13:04:58.827Z,60.88
2022-12-15T13:08:08.151Z,60.95
2022-12-15T13:11:48.906Z,64.70
2022-12-15T13:15:19.814Z,60.42
2022-12-15T13:18:25.076Z,63.60
2022-12-15T13:21:43.402Z,77.87
2022-12-15T13:24:50.505Z,63.38
2022-12-15T13:27:57.927Z,58.70
2022-12-15T13:31:22.625Z,64.00
2022-12-15T13:34:27.195Z,59.25
2022-12-15T13:37:53.545Z,51.08
2022-12-15T13:40:56.427Z,45.97
2022-12-15T13:44:00.759Z,45.10
2022-12-15T13:47:10.539Z,42.80
2022-12-15T13:50:18.596Z,49.70
2022-12-15T13:53:23.773Z,48.42
2022-12-15T13:56:53.284Z,45.92
2022-12-15T14:00:05.253Z,48.95
2022-12-15T14:03:14.903Z,44.05
2022-12-15T14:06:18.059Z,40.12
2022-12-15T14:09:24.793Z,44.42
2022-12-15T14:12:28.121Z,50.17
2022-12-15T14:15:32.530Z,50.58
2022-12-15T14:18:39.135Z,51.08
2022-12-15T14:21:58.885Z,48.20
2022-12-15T14:25:14.610Z,50.05
2022-12-15T14:28:32.558Z,55.67
2022-12-15T14:31:37.592Z,51.08
2022-12-15T14:34:42.009Z,53.00
2022-12-15T14:37:45.882Z,49.13
2022-12-15T14:40:49.967Z,48.38
2022-12-15T14:47:34.356Z,47.33
2022-12-15T14:50:37.717Z,52.30
2022-12-15T14:53:42.340Z,59.42
2022-12-15T14:56:45.503Z,49.75
2022-12-15T14:59:48.939Z,52.85
2022-12-15T15:03:16.173Z,46.05
2022-12-15T15:03:18.471Z,51.88
2022-12-15T15:06:25.156Z,54.60
2022-12-15T15:09:41.900Z,60.15
2022-12-15T15:12:45.757Z,62.88
2022-12-15T15:15:57.785Z,56.75
2022-12-15T15:19:02.606Z,58.05
2022-12-15T15:22:05.872Z,59.55
2022-12-15T15:25:31.628Z,64.87
2022-12-15T15:28:44.841Z,50.30
2022-12-15T15:31:47.848Z,61.95
2022-12-15T15:34:52.295Z,65.50
2022-12-15T15:37:59.852Z,63.58
2022-12-15T15:41:17.611Z,62.40
2022-12-15T15:44:20.433Z,60.00
2022-12-15T15:47:27.365Z,65.55
2022-12-15T15:50:30.455Z,62.08
2022-12-15T15:53:34.812Z,62.60
2022-12-15T15:56:37.699Z,64.32
2022-12-15T15:59:42.530Z,66.62
2022-12-15T16:02:45.542Z,64.53
2022-12-15T16:05:48.862Z,66.65
2022-12-15T16:08:53.980Z,64.82
2022-12-15T16:15:01.261Z,70.30
2022-12-15T16:18:05.834Z,62.70
2022-12-15T16:21:10.863Z,66.03
2022-12-15T16:24:16.978Z,79.95
2022-12-15T16:27:19.926Z,68.75
2022-12-15T16:30:25.860Z,59.28
2022-12-15T16:33:28.837Z,63.03
2022-12-15T16:36:32.876Z,57.75
2022-12-15T16:39:35.905Z,58.03
2022-12-15T16:42:39.221Z,57.03
2022-12-15T16:45:45.288Z,53.67
2022-12-15T16:48:48.771Z,50.00
2022-12-15T16:51:53.795Z,62.13
2022-12-15T16:54:57.414Z,64.72
2022-12-15T16:58:03.310Z,60.65
2022-12-15T17:01:06.598Z,56.72
2022-12-15T17:04:09.655Z,50.53
2022-12-15T17:07:19.712Z,57.85
2022-12-15T17:10:26.610Z,56.22
2022-12-15T17:13:45.416Z,54.22
2022-12-15T17:16:48.907Z,50.72
2022-12-15T17:20:27.281Z,43.30
2022-12-15T17:23:21.309Z,51.33
2022-12-15T17:26:30.165Z,42.50
2022-12-15T17:29:33.951Z,44.40
2022-12-15T17:32:37.451Z,45.15
2022-12-15T17:35:40.579Z,38.97
2022-12-15T17:38:43.890Z,59.78
2022-12-15T17:42:04.804Z,59.15
2022-12-15T17:45:21.067Z,62.45
2022-12-15T17:48:25.027Z,69.32
2022-12-15T17:51:29.600Z,58.15
2022-12-15T17:54:34.967Z,64.18
2022-12-15T17:57:38.614Z,64.28
2022-12-15T18:00:48.900Z,34.17
2022-12-15T18:03:55.946Z,34.58
2022-12-15T18:07:02.113Z,34.97
2022-12-15T18:10:26.322Z,34.15
2022-12-15T18:13:35.579Z,27.33
2022-12-15T18:16:39.383Z,26.73
2022-12-15T18:19:42.461Z,32.45
2022-12-15T18:22:46.885Z,26.85
2022-12-15T18:25:50.780Z,26.17
2022-12-15T18:28:55.443Z,50.00
2022-12-15T18:31:58.936Z,54.58
2022-12-15T18:35:03.125Z,41.20
2022-12-15T18:38:24.954Z,26.35
2022-12-15T18:41:34.886Z,26.70
2022-12-15T18:44:47.627Z,27.25
2022-12-15T18:47:53.213Z,22.33
2022-12-15T18:51:04.498Z,25.62
2022-12-15T18:54:17.155Z,28.92
2022-12-15T18:57:34.154Z,24.67
2022-12-15T19:00:40.036Z,27.13
2022-12-15T19:03:44.323Z,26.87
2022-12-15T19:06:48.085Z,28.87
2022-12-15T19:09:52.432Z,29.70
2022-12-15T19:12:58.669Z,27.80
2022-12-15T19:16:03.742Z,20.48
2022-12-15T19:19:29.074Z,21.12
2022-12-15T19:22:32.929Z,25.42
2022-12-15T19:25:37.191Z,23.35
2022-12-15T19:28:40.797Z,24.05
2022-12-15T19:31:45.230Z,21.98
2022-12-15T19:34:48.918Z,20.45
2022-12-15T19:37:55.365Z,20.23
2022-12-15T19:40:59.968Z,16.83
2022-12-15T19:44:04.242Z,19.60
2022-12-15T19:47:14.819Z,16.23
2022-12-15T19:50:31.734Z,14.98
2022-12-15T19:53:36.727Z,12.70
2022-12-15T19:56:42.642Z,13.77
2022-12-15T19:59:47.054Z,12.82
2022-12-15T20:02:52.241Z,13.85
2022-12-15T20:05:57.026Z,11.25
2022-12-15T20:09:00.780Z,10.20
2022-12-15T20:12:06.014Z,11.75
2022-12-15T20:15:19.415Z,9.50
2022-12-15T20:18:24.299Z,9.32
2022-12-15T20:21:32.759Z,8.10
2022-12-15T20:24:36.855Z,7.53
2022-12-15T20:27:41.136Z,13.10
2022-12-15T20:30:47.968Z,14.55
2022-12-15T20:33:57.292Z,12.20
2022-12-15T20:37:01.272Z,11.18
2022-12-15T20:40:15.869Z,9.05
2022-12-15T20:43:20.963Z,9.38
2022-12-15T20:46:30.607Z,9.70
2022-12-15T20:49:34.500Z,11.48
2022-12-15T20:52:37.754Z,9.13
2022-12-15T20:55:41.493Z,10.30
2022-12-15T20:58:46.282Z,10.98
2022-12-15T21:01:51.064Z,9.43
2022-12-15T21:04:55.768Z,9.32
2022-12-15T21:08:00.672Z,7.97
2022-12-15T21:11:27.595Z,13.60
2022-12-15T21:14:31.150Z,13.13
2022-12-15T21:17:37.436Z,11.27
2022-12-15T21:20:51.730Z,12.88
2022-12-15T21:23:56.158Z,13.70
2022-12-15T21:27:02.394Z,16.85
2022-12-15T21:30:14.909Z,14.55
2022-12-15T21:33:18.308Z,14.30
2022-12-15T21:36:21.839Z,14.90
2022-12-15T21:39:31.173Z,14.45
2022-12-15T21:42:35.761Z,16.30
2022-12-15T21:45:39.073Z,16.90
2022-12-15T21:49:01.036Z,17.70
2022-12-15T21:52:04.529Z,14.70
2022-12-15T21:55:18.116Z,13.50
2022-12-15T21:58:24.516Z,13.07
2022-12-15T22:01:31.014Z,13.57
2022-12-15T22:04:35.388Z,14.52
2022-12-15T22:07:39.798Z,16.70
2022-12-15T22:10:43.209Z,14.27
2022-12-15T22:13:46.182Z,12.52
2022-12-15T22:16:49.412Z,12.68
2022-12-15T22:19:53.171Z,12.10
2022-12-15T22:22:56.668Z,14.23
2022-12-15T22:25:59.810Z,12.95
2022-12-15T22:29:09.255Z,12.20
2022-12-15T22:32:14.377Z,13.07
2022-12-15T22:35:20.440Z,12.10
2022-12-15T22:38:23.787Z,12.30
2022-12-15T22:41:27.012Z,14.57
2022-12-15T22:44:36.077Z,12.05
2022-12-15T22:47:39.332Z,11.35
2022-12-15T22:50:42.301Z,12.27
2022-12-15T22:53:45.616Z,12.37
2022-12-15T22:57:06.073Z,11.05
2022-12-15T23:00:11.257Z,11.70
2022-12-15T23:03:14.131Z,11.93
2022-12-15T23:06:17.422Z,12.95
2022-12-15T23:09:20.357Z,15.60
2022-12-15T23:12:23.567Z,11.98
2022-12-15T23:15:46.602Z,9.07
2022-12-15T23:18:52.990Z,10.65
2022-12-15T23:21:57.617Z,13.55
2022-12-15T23:25:02.201Z,15.60
2022-12-15T23:28:05.560Z,13.65
2022-12-15T23:31:09.093Z,12.73
2022-12-15T23:34:12.629Z,15.23
2022-12-15T23:37:16.440Z,11.12
2022-12-15T23:40:22.275Z,12.45
2022-12-15T23:43:27.471Z,12.37
2022-12-15T23:46:30.341Z,10.17
2022-12-15T23:49:33.556Z,9.85
2022-12-15T23:52:37.164Z,9.48
2022-12-15T23:55:40.487Z,11.70
2022-12-15T23:58:45.118Z,8.32
